createdAt,value
2023-04-07T00:01:12.625Z,6.67
2023-04-07T00:03:41.569Z,6.66
2023-04-07T00:06:09.087Z,6.66
2023-04-07T00:08:36.349Z,6.64
2023-04-07T00:11:03.710Z,6.63
2023-04-07T00:13:31.287Z,6.64
2023-04-07T00:15:58.800Z,6.64
2023-04-07T00:18:26.246Z,6.62
2023-04-07T00:20:53.463Z,6.62
2023-04-07T00:23:20.975Z,6.62
2023-04-07T00:25:49.129Z,6.62
2023-04-07T00:28:16.499Z,6.61
2023-04-07T00:30:43.840Z,6.62
2023-04-07T00:33:11.298Z,6.62
2023-04-07T00:35:38.765Z,6.62
2023-04-07T00:38:06.162Z,6.63
2023-04-07T00:40:35.019Z,6.63
2023-04-07T00:43:02.253Z,6.63
2023-04-07T00:45:29.569Z,6.63
2023-04-07T00:47:59.125Z,6.64
2023-04-07T00:50:27.139Z,6.63
2023-04-07T00:52:57.010Z,6.62
2023-04-07T00:55:24.574Z,6.63
2023-04-07T00:57:51.912Z,6.63
2023-04-07T01:00:19.945Z,6.62
2023-04-07T01:03:18.420Z,6.61
2023-04-07T01:05:57.348Z,6.61
2023-04-07T01:08:42.850Z,6.61
2023-04-07T01:11:27.272Z,6.61
2023-04-07T01:13:59.202Z,6.59
2023-04-07T01:16:49.749Z,6.58
2023-04-07T01:19:39.941Z,6.60
2023-04-07T01:22:14.232Z,6.59
2023-04-07T01:24:50.905Z,6.58
2023-04-07T01:27:47.336Z,6.59
2023-04-07T01:30:16.960Z,6.59
2023-04-07T01:32:50.549Z,6.58
2023-04-07T01:35:20.159Z,6.59
2023-04-07T01:37:50.603Z,6.59
2023-04-07T01:40:18.988Z,6.59
2023-04-07T01:42:48.204Z,6.58
2023-04-07T01:45:17.234Z,6.57
2023-04-07T01:47:45.887Z,6.56
2023-04-07T01:50:14.239Z,6.56
2023-04-07T01:52:43.260Z,6.53
2023-04-07T01:55:11.234Z,6.52
2023-04-07T01:57:46.914Z,6.52
2023-04-07T02:00:18.258Z,6.52
2023-04-07T02:02:55.885Z,6.50
2023-04-07T02:05:24.163Z,6.50
2023-04-07T02:08:00.181Z,6.49
2023-04-07T02:10:29.521Z,6.49
2023-04-07T02:13:02.058Z,6.49
2023-04-07T02:15:32.227Z,6.49
2023-04-07T02:18:01.356Z,6.50
2023-04-07T02:20:29.764Z,6.50
2023-04-07T02:22:57.581Z,6.50
2023-04-07T02:25:27.369Z,6.50
2023-04-07T02:27:56.644Z,6.51
2023-04-07T02:30:24.321Z,6.51
2023-04-07T02:32:52.606Z,6.51
2023-04-07T02:35:21.220Z,6.53
2023-04-07T02:37:49.452Z,6.53
2023-04-07T02:40:17.197Z,6.53
2023-04-07T02:42:45.426Z,6.53
2023-04-07T02:45:12.743Z,6.53
2023-04-07T02:47:40.514Z,6.54
2023-04-07T02:50:08.238Z,6.53
2023-04-07T02:52:36.622Z,6.54
2023-04-07T02:55:11.669Z,6.54
2023-04-07T02:57:39.592Z,6.52
2023-04-07T03:00:12.505Z,6.52
2023-04-07T03:03:02.715Z,6.51
2023-04-07T03:05:34.111Z,6.50
2023-04-07T03:08:03.276Z,6.50
2023-04-07T03:10:31.056Z,6.50
2023-04-07T03:12:58.720Z,6.50
2023-04-07T03:15:26.687Z,6.49
2023-04-07T03:17:54.124Z,6.48
2023-04-07T03:20:21.559Z,6.47
2023-04-07T03:22:48.847Z,6.49
2023-04-07T03:25:22.938Z,6.48
2023-04-07T03:27:51.743Z,6.49
2023-04-07T03:30:19.646Z,6.48
2023-04-07T03:32:47.630Z,6.48
2023-04-07T03:35:15.193Z,6.48
2023-04-07T03:37:44.979Z,6.49
2023-04-07T03:40:16.802Z,6.50
2023-04-07T03:42:46.852Z,6.51
2023-04-07T03:45:15.821Z,6.49
2023-04-07T03:47:47.630Z,6.49
2023-04-07T03:50:16.384Z,6.51
2023-04-07T03:53:06.459Z,6.51
2023-04-07T03:55:35.124Z,6.51
2023-04-07T03:58:10.535Z,6.52
2023-04-07T04:00:38.593Z,6.53
2023-04-07T04:03:10.237Z,6.52
2023-04-07T04:05:44.945Z,6.53
2023-04-07T04:08:17.748Z,6.51
2023-04-07T04:10:45.678Z,6.53
2023-04-07T04:13:13.281Z,6.53
2023-04-07T04:15:42.204Z,6.51
2023-04-07T04:18:14.662Z,6.51
2023-04-07T04:20:43.271Z,6.49
2023-04-07T04:23:10.918Z,6.49
2023-04-07T04:25:39.787Z,6.48
2023-04-07T04:28:10.707Z,6.46
2023-04-07T04:30:38.294Z,6.45
2023-04-07T04:33:05.889Z,6.46
2023-04-07T04:35:42.607Z,6.44
2023-04-07T04:38:16.639Z,6.44
2023-04-07T04:40:50.488Z,6.44
2023-04-07T04:43:21.207Z,6.44
2023-04-07T04:45:48.495Z,6.43
2023-04-07T04:48:17.461Z,6.41
2023-04-07T04:50:45.348Z,6.42
2023-04-07T04:53:14.172Z,6.43
2023-04-07T04:55:58.036Z,6.45
2023-04-07T04:58:36.059Z,6.46
2023-04-07T05:01:03.470Z,6.47
2023-04-07T05:03:37.862Z,6.47
2023-04-07T05:06:12.621Z,6.50
2023-04-07T05:08:42.644Z,6.49
2023-04-07T05:11:11.819Z,6.50
2023-04-07T05:13:39.621Z,6.49
2023-04-07T05:16:09.637Z,6.50
2023-04-07T05:18:37.100Z,6.51
2023-04-07T05:21:06.427Z,6.50
2023-04-07T05:23:36.506Z,6.51
2023-04-07T05:26:05.852Z,6.52
2023-04-07T05:28:33.422Z,6.52
2023-04-07T05:31:07.554Z,6.53
2023-04-07T05:33:36.193Z,6.56
2023-04-07T05:36:04.431Z,6.57
2023-04-07T05:38:33.340Z,6.59
2023-04-07T05:41:12.470Z,6.60
2023-04-07T05:43:41.693Z,6.62
2023-04-07T05:46:09.592Z,6.62
2023-04-07T05:48:46.614Z,6.65
2023-04-07T05:51:15.732Z,6.68
2023-04-07T05:53:43.929Z,6.70
2023-04-07T05:56:11.509Z,6.71
2023-04-07T05:58:44.126Z,6.74
2023-04-07T06:01:12.871Z,6.77
2023-04-07T06:03:41.361Z,6.79
2023-04-07T06:06:23.819Z,6.81
2023-04-07T06:08:51.274Z,6.83
2023-04-07T06:11:19.230Z,6.84
2023-04-07T06:13:46.998Z,6.86
2023-04-07T06:16:15.212Z,6.87
2023-04-07T06:18:43.223Z,6.88
2023-04-07T06:21:11.003Z,6.87
2023-04-07T06:23:38.658Z,6.90
2023-04-07T06:26:11.665Z,6.91
2023-04-07T06:28:39.473Z,6.92
2023-04-07T06:31:09.602Z,6.92
2023-04-07T06:33:38.261Z,6.91
2023-04-07T06:36:05.784Z,6.91
2023-04-07T06:38:33.154Z,6.95
2023-04-07T06:41:00.466Z,6.97
2023-04-07T06:43:27.844Z,7.01
2023-04-07T06:46:00.829Z,7.05
2023-04-07T06:48:28.206Z,7.08
2023-04-07T06:50:55.457Z,7.10
2023-04-07T06:53:22.849Z,7.12
2023-04-07T06:59:50.804Z,7.11
2023-04-07T07:02:18.557Z,7.15
2023-04-07T07:04:46.134Z,7.17
2023-04-07T07:07:13.475Z,7.12
2023-04-07T07:09:40.936Z,7.10
2023-04-07T07:12:08.150Z,7.09
2023-04-07T07:14:35.620Z,7.07
2023-04-07T07:17:02.885Z,7.06
2023-04-07T07:19:30.472Z,7.07
2023-04-07T07:21:57.701Z,7.13
2023-04-07T07:24:25.027Z,7.20
2023-04-07T07:26:52.335Z,7.29
2023-04-07T07:29:20.583Z,7.31
2023-04-07T07:31:49.441Z,7.32
2023-04-07T07:34:16.760Z,7.34
2023-04-07T07:36:44.029Z,7.37
2023-04-07T07:39:11.421Z,7.39
2023-04-07T07:41:38.791Z,7.42
2023-04-07T07:44:06.229Z,7.50
2023-04-07T07:46:33.680Z,7.61
2023-04-07T07:49:00.986Z,7.72
2023-04-07T07:51:28.356Z,7.87
2023-04-07T07:53:56.143Z,7.91
2023-04-07T07:56:24.118Z,8.02
2023-04-07T07:58:51.353Z,8.10
2023-04-07T08:01:18.740Z,8.09
2023-04-07T08:03:46.315Z,8.16
2023-04-07T08:06:14.013Z,8.18
2023-04-07T08:08:41.228Z,8.28
2023-04-07T08:11:09.049Z,8.37
2023-04-07T08:13:36.702Z,8.50
2023-04-07T08:16:04.206Z,8.62
2023-04-07T08:18:31.543Z,8.74
2023-04-07T08:20:58.920Z,8.81
2023-04-07T08:23:26.263Z,8.93
2023-04-07T08:25:53.654Z,8.94
2023-04-07T08:28:21.977Z,8.95
2023-04-07T08:30:49.269Z,9.04
2023-04-07T08:33:16.696Z,9.06
2023-04-07T08:35:44.182Z,9.08
2023-04-07T08:38:11.867Z,9.11
2023-04-07T08:40:39.581Z,9.23
2023-04-07T08:43:10.166Z,9.41
2023-04-07T08:45:40.760Z,9.62
2023-04-07T08:48:18.166Z,9.85
2023-04-07T08:50:46.459Z,10.08
2023-04-07T08:53:16.078Z,10.25
2023-04-07T08:55:43.387Z,10.41
2023-04-07T08:58:13.667Z,10.44
2023-04-07T09:00:45.954Z,10.56
2023-04-07T09:03:13.802Z,10.65
2023-04-07T09:05:41.582Z,10.67
2023-04-07T09:08:09.977Z,10.68
2023-04-07T09:10:37.613Z,10.72
2023-04-07T09:13:04.962Z,10.78
2023-04-07T09:15:32.630Z,10.87
2023-04-07T09:17:59.895Z,10.89
2023-04-07T09:20:27.443Z,10.85
2023-04-07T09:22:54.865Z,10.78
2023-04-07T09:25:28.127Z,10.70
2023-04-07T09:28:03.468Z,10.67
2023-04-07T09:30:33.719Z,10.64
2023-04-07T09:33:02.207Z,10.60
2023-04-07T09:35:30.148Z,10.59
2023-04-07T09:38:08.760Z,10.61
2023-04-07T09:40:37.665Z,10.54
2023-04-07T09:43:06.621Z,10.50
2023-04-07T09:45:36.599Z,10.48
2023-04-07T09:48:09.277Z,10.51
2023-04-07T09:50:41.584Z,10.65
2023-04-07T09:53:08.988Z,10.72
2023-04-07T09:55:37.713Z,10.87
2023-04-07T09:58:06.587Z,10.97
2023-04-07T10:00:35.676Z,10.91
2023-04-07T10:03:04.638Z,10.96
2023-04-07T10:05:33.397Z,11.07
2023-04-07T10:08:03.545Z,11.09
2023-04-07T10:10:31.863Z,11.07
2023-04-07T10:12:59.465Z,11.10
2023-04-07T10:15:26.993Z,11.00
2023-04-07T10:17:56.909Z,11.10
2023-04-07T10:20:24.932Z,11.17
2023-04-07T10:22:53.903Z,11.29
2023-04-07T10:25:24.434Z,11.45
2023-04-07T10:27:59.589Z,11.57
2023-04-07T10:30:30.670Z,11.64
2023-04-07T10:32:58.983Z,11.61
2023-04-07T10:35:27.070Z,11.71
2023-04-07T10:38:10.925Z,11.75
2023-04-07T10:40:38.562Z,11.88
2023-04-07T10:43:09.597Z,11.78
2023-04-07T10:45:46.661Z,11.67
2023-04-07T10:48:16.021Z,11.64
2023-04-07T10:50:43.266Z,11.63
2023-04-07T10:53:16.291Z,11.66
2023-04-07T10:55:45.204Z,11.64
2023-04-07T10:58:15.713Z,11.54
2023-04-07T11:01:06.571Z,11.50
2023-04-07T11:03:36.115Z,11.46
2023-04-07T11:06:04.574Z,11.50
2023-04-07T11:08:48.256Z,11.70
2023-04-07T11:11:21.038Z,11.81
2023-04-07T11:13:51.346Z,11.92
2023-04-07T11:16:20.212Z,12.00
2023-04-07T11:18:48.102Z,12.09
2023-04-07T11:21:19.734Z,12.19
2023-04-07T11:23:48.046Z,12.28
2023-04-07T11:26:16.570Z,12.42
2023-04-07T11:28:49.186Z,12.56
2023-04-07T11:31:31.644Z,12.63
2023-04-07T11:34:01.936Z,12.69
2023-04-07T11:36:32.581Z,12.76
2023-04-07T11:39:00.836Z,12.77
2023-04-07T11:41:30.864Z,12.71
2023-04-07T11:44:09.683Z,12.51
2023-04-07T11:46:37.848Z,12.39
2023-04-07T11:49:14.040Z,12.23
2023-04-07T11:51:45.733Z,12.11
2023-04-07T11:54:13.350Z,11.99
2023-04-07T11:56:48.658Z,11.91
2023-04-07T11:59:24.368Z,11.85
2023-04-07T12:01:55.328Z,11.87
2023-04-07T12:04:24.752Z,11.99
2023-04-07T12:06:52.324Z,11.98
2023-04-07T12:09:32.436Z,12.00
2023-04-07T12:12:00.085Z,12.04
2023-04-07T12:14:28.059Z,12.03
2023-04-07T12:16:57.855Z,11.94
2023-04-07T12:19:29.565Z,11.94
2023-04-07T12:21:57.279Z,11.94
2023-04-07T12:24:24.961Z,11.90
2023-04-07T12:26:52.432Z,11.98
2023-04-07T12:29:20.413Z,12.05
2023-04-07T12:31:50.638Z,12.12
2023-04-07T12:34:18.814Z,12.19
2023-04-07T12:36:46.122Z,12.19
2023-04-07T12:39:13.475Z,12.22
2023-04-07T12:41:41.061Z,12.29
2023-04-07T12:44:08.423Z,12.44
2023-04-07T12:46:35.794Z,12.48
2023-04-07T12:49:03.511Z,12.51
2023-04-07T12:51:33.435Z,12.51
2023-04-07T12:54:01.005Z,12.52
2023-04-07T12:56:29.104Z,12.50
2023-04-07T12:58:56.877Z,12.49
2023-04-07T13:01:24.332Z,12.46
2023-04-07T13:03:52.314Z,12.40
2023-04-07T13:06:19.876Z,12.32
2023-04-07T13:08:47.285Z,12.25
2023-04-07T13:11:14.511Z,12.24
2023-04-07T13:13:41.799Z,12.31
2023-04-07T13:16:09.366Z,12.36
2023-04-07T13:18:36.871Z,12.44
2023-04-07T13:21:38.337Z,12.59
2023-04-07T13:23:53.456Z,12.81
2023-04-07T13:26:20.898Z,12.99
2023-04-07T13:28:48.656Z,13.08
2023-04-07T13:31:16.463Z,13.09
2023-04-07T13:33:44.295Z,13.15
2023-04-07T13:36:11.816Z,13.15
2023-04-07T13:38:39.091Z,13.17
2023-04-07T13:41:06.935Z,13.24
2023-04-07T13:43:34.428Z,13.32
2023-04-07T13:46:01.957Z,13.35
2023-04-07T13:48:29.233Z,13.32
2023-04-07T13:50:56.947Z,13.32
2023-04-07T13:53:24.947Z,13.37
2023-04-07T13:55:52.364Z,13.45
2023-04-07T13:58:19.594Z,13.48
2023-04-07T14:00:47.439Z,13.43
2023-04-07T14:03:15.667Z,13.36
2023-04-07T14:05:43.386Z,13.33
2023-04-07T14:08:10.768Z,13.31
2023-04-07T14:10:40.297Z,13.24
2023-04-07T14:13:07.690Z,13.24
2023-04-07T14:15:35.056Z,13.26
2023-04-07T14:18:02.991Z,13.24
2023-04-07T14:20:30.613Z,13.25
2023-04-07T14:22:58.041Z,13.27
2023-04-07T14:25:25.417Z,13.27
2023-04-07T14:27:52.818Z,13.23
2023-04-07T14:30:26.737Z,13.25
2023-04-07T14:32:54.038Z,13.29
2023-04-07T14:35:21.657Z,13.31
2023-04-07T14:37:49.036Z,13.32
2023-04-07T14:40:16.618Z,13.36
2023-04-07T14:42:43.843Z,13.36
2023-04-07T14:45:12.856Z,13.32
2023-04-07T14:47:40.431Z,13.24
2023-04-07T14:50:11.131Z,13.21
2023-04-07T14:52:38.369Z,13.20
2023-04-07T14:55:06.165Z,13.19
2023-04-07T14:57:33.679Z,13.13
2023-04-07T15:00:01.175Z,13.11
2023-04-07T15:02:29.382Z,13.05
2023-04-07T15:04:56.835Z,13.08
2023-04-07T15:07:24.075Z,13.10
2023-04-07T15:09:51.473Z,13.11
2023-04-07T15:12:19.287Z,13.11
2023-04-07T15:14:46.536Z,13.14
2023-04-07T15:17:13.767Z,13.15
2023-04-07T15:19:41.131Z,13.11
2023-04-07T15:22:11.687Z,13.08
2023-04-07T15:24:38.954Z,13.03
2023-04-07T15:27:06.788Z,13.01
2023-04-07T15:29:34.016Z,13.01
2023-04-07T15:32:01.416Z,13.01
2023-04-07T15:34:28.654Z,13.04
2023-04-07T15:36:56.014Z,13.02
2023-04-07T15:39:23.250Z,13.00
2023-04-07T15:41:50.530Z,12.96
2023-04-07T15:44:19.034Z,12.95
2023-04-07T15:46:46.359Z,12.94
2023-04-07T15:49:13.948Z,12.91
2023-04-07T15:51:41.252Z,12.86
2023-04-07T15:54:08.615Z,12.85
2023-04-07T15:56:35.956Z,12.82
2023-04-07T15:59:03.235Z,12.80
2023-04-07T16:01:30.920Z,12.78
2023-04-07T16:03:58.493Z,12.74
2023-04-07T16:06:26.320Z,12.72
2023-04-07T16:08:53.549Z,12.67
2023-04-07T16:11:21.512Z,12.65
2023-04-07T16:13:48.927Z,12.63
2023-04-07T16:16:16.478Z,12.61
2023-04-07T16:18:43.758Z,12.56
2023-04-07T16:21:11.308Z,12.47
2023-04-07T16:23:38.563Z,12.42
2023-04-07T16:26:05.770Z,12.36
2023-04-07T16:28:33.139Z,12.32
2023-04-07T16:31:02.630Z,12.24
2023-04-07T16:33:30.027Z,12.20
2023-04-07T16:35:57.378Z,12.13
2023-04-07T16:38:24.814Z,12.06
2023-04-07T16:41:03.364Z,12.00
2023-04-07T16:43:31.486Z,11.94
2023-04-07T16:46:00.183Z,11.90
2023-04-07T16:48:27.635Z,11.84
2023-04-07T16:50:54.886Z,11.80
2023-04-07T16:53:22.256Z,11.77
2023-04-07T16:55:49.511Z,11.71
2023-04-07T16:58:19.076Z,11.68
2023-04-07T17:00:46.542Z,11.65
2023-04-07T17:03:15.423Z,11.62
2023-04-07T17:05:44.709Z,11.58
2023-04-07T17:08:12.230Z,11.55
2023-04-07T17:10:39.410Z,11.49
2023-04-07T17:13:06.651Z,11.46
2023-04-07T17:15:38.240Z,11.41
2023-04-07T17:18:06.081Z,11.35
2023-04-07T17:20:33.415Z,11.26
2023-04-07T17:23:00.913Z,11.18
2023-04-07T17:25:28.078Z,11.11
2023-04-07T17:27:55.519Z,11.02
2023-04-07T17:30:23.052Z,10.96
2023-04-07T17:32:53.724Z,10.87
2023-04-07T17:35:21.588Z,10.77
2023-04-07T17:37:49.529Z,10.65
2023-04-07T17:40:16.846Z,10.57
2023-04-07T17:42:44.816Z,10.50
2023-04-07T17:45:12.682Z,10.42
2023-04-07T17:47:42.618Z,10.33
2023-04-07T17:50:10.739Z,10.26
2023-04-07T17:52:38.022Z,10.15
2023-04-07T17:55:06.573Z,10.04
2023-04-07T17:57:36.100Z,9.94
2023-04-07T18:00:05.140Z,9.86
2023-04-07T18:02:40.767Z,9.80
2023-04-07T18:05:08.849Z,9.69
2023-04-07T18:07:36.414Z,9.63
2023-04-07T18:10:04.046Z,9.56
2023-04-07T18:12:31.994Z,9.51
2023-04-07T18:14:59.347Z,9.45
2023-04-07T18:17:27.322Z,9.39
2023-04-07T18:19:54.755Z,9.33
2023-04-07T18:22:22.654Z,9.28
2023-04-07T18:24:51.615Z,9.25
2023-04-07T18:27:19.351Z,9.21
2023-04-07T18:29:46.568Z,9.16
2023-04-07T18:32:13.753Z,9.11
2023-04-07T18:34:41.295Z,9.07
2023-04-07T18:37:08.543Z,9.01
2023-04-07T18:39:35.922Z,8.97
2023-04-07T18:42:03.340Z,8.91
2023-04-07T18:44:30.654Z,8.86
2023-04-07T18:46:58.154Z,8.82
2023-04-07T18:49:28.302Z,8.77
2023-04-07T18:51:55.944Z,8.70
2023-04-07T18:54:24.270Z,8.66
2023-04-07T18:56:52.471Z,8.61
2023-04-07T18:59:19.639Z,8.55
2023-04-07T19:01:47.155Z,8.51
2023-04-07T19:04:15.733Z,8.47
2023-04-07T19:06:43.008Z,8.44
2023-04-07T19:09:10.410Z,8.38
2023-04-07T19:11:37.682Z,8.33
2023-04-07T19:14:05.952Z,8.28
2023-04-07T19:16:34.473Z,8.24
2023-04-07T19:19:03.020Z,8.19
2023-04-07T19:21:31.181Z,8.14
2023-04-07T19:23:59.473Z,8.09
2023-04-07T19:26:28.007Z,8.06
2023-04-07T19:28:57.695Z,8.02
2023-04-07T19:31:25.524Z,7.97
2023-04-07T19:33:52.745Z,7.92
2023-04-07T19:36:20.018Z,7.89
2023-04-07T19:38:47.351Z,7.84
2023-04-07T19:41:14.514Z,7.78
2023-04-07T19:43:42.803Z,7.73
2023-04-07T19:46:10.206Z,7.71
2023-04-07T19:48:40.058Z,7.67
2023-04-07T19:51:08.035Z,7.63
2023-04-07T19:53:35.538Z,7.61
2023-04-07T19:56:04.803Z,7.57
2023-04-07T19:58:36.019Z,7.54
2023-04-07T20:01:04.698Z,7.50
2023-04-07T20:03:32.196Z,7.46
2023-04-07T20:05:59.876Z,7.42
2023-04-07T20:08:27.294Z,7.39
2023-04-07T20:10:54.548Z,7.38
2023-04-07T20:13:23.387Z,7.35
2023-04-07T20:15:50.682Z,7.34
2023-04-07T20:18:18.693Z,7.33
2023-04-07T20:20:46.335Z,7.30
2023-04-07T20:23:15.962Z,7.27
2023-04-07T20:25:43.287Z,7.25
2023-04-07T20:28:10.625Z,7.22
2023-04-07T20:30:37.937Z,7.19
2023-04-07T20:33:05.254Z,7.15
2023-04-07T20:35:32.794Z,7.11
2023-04-07T20:38:00.277Z,7.09
2023-04-07T20:40:28.048Z,7.06
2023-04-07T20:42:55.474Z,7.03
2023-04-07T20:45:23.212Z,7.01
2023-04-07T20:47:51.329Z,6.96
2023-04-07T20:50:18.699Z,6.92
2023-04-07T20:52:45.903Z,6.90
2023-04-07T20:55:13.292Z,6.86
2023-04-07T20:57:41.696Z,6.83
2023-04-07T21:00:12.572Z,6.80
2023-04-07T21:02:39.986Z,6.78
2023-04-07T21:05:07.747Z,6.75
2023-04-07T21:07:35.021Z,6.72
2023-04-07T21:10:03.197Z,6.70
2023-04-07T21:12:30.714Z,6.66
2023-04-07T21:14:58.208Z,6.61
2023-04-07T21:17:25.588Z,6.57
2023-04-07T21:19:52.849Z,6.53
2023-04-07T21:22:20.618Z,6.51
2023-04-07T21:24:47.904Z,6.47
2023-04-07T21:27:16.901Z,6.42
2023-04-07T21:29:44.219Z,6.36
2023-04-07T21:32:12.222Z,6.33
2023-04-07T21:34:40.087Z,6.29
2023-04-07T21:37:10.436Z,6.25
2023-04-07T21:39:37.747Z,6.23
2023-04-07T21:42:05.132Z,6.20
2023-04-07T21:44:32.629Z,6.18
2023-04-07T21:46:59.983Z,6.15
2023-04-07T21:49:27.744Z,6.11
2023-04-07T21:51:55.372Z,6.07
2023-04-07T21:54:23.176Z,6.05
2023-04-07T21:56:51.611Z,6.03
2023-04-07T21:59:19.015Z,6.00
2023-04-07T22:01:47.150Z,5.95
2023-04-07T22:04:14.850Z,5.94
2023-04-07T22:06:42.310Z,5.93
2023-04-07T22:09:09.933Z,5.89
2023-04-07T22:11:37.451Z,5.85
2023-04-07T22:14:05.738Z,5.82
2023-04-07T22:16:33.401Z,5.80
2023-04-07T22:19:01.105Z,5.78
2023-04-07T22:21:28.697Z,5.73
2023-04-07T22:23:56.237Z,5.70
2023-04-07T22:26:23.665Z,5.66
2023-04-07T22:28:51.286Z,5.62
2023-04-07T22:31:18.846Z,5.57
2023-04-07T22:33:46.432Z,5.51
2023-04-07T22:36:13.695Z,5.49
2023-04-07T22:38:40.990Z,5.45
2023-04-07T22:41:08.297Z,5.42
2023-04-07T22:43:35.667Z,5.38
2023-04-07T22:46:03.096Z,5.35
2023-04-07T22:48:30.562Z,5.31
2023-04-07T22:50:57.921Z,5.26
2023-04-07T22:53:25.604Z,5.22
2023-04-07T22:55:53.228Z,5.20
2023-04-07T22:58:20.834Z,5.17
2023-04-07T23:00:48.104Z,5.14
2023-04-07T23:03:15.964Z,5.15
2023-04-07T23:05:43.282Z,5.13
2023-04-07T23:08:10.561Z,5.13
2023-04-07T23:10:38.454Z,5.11
2023-04-07T23:13:05.914Z,5.11
2023-04-07T23:15:36.036Z,5.11
2023-04-07T23:18:03.482Z,5.08
2023-04-07T23:20:30.768Z,5.05
2023-04-07T23:22:58.083Z,5.00
2023-04-07T23:25:25.309Z,4.98
2023-04-07T23:27:52.512Z,4.95
2023-04-07T23:30:19.935Z,4.92
2023-04-07T23:32:47.251Z,4.89
2023-04-07T23:35:14.441Z,4.86
2023-04-07T23:37:42.506Z,4.84
2023-04-07T23:40:10.507Z,4.80
2023-04-07T23:42:37.762Z,4.76
2023-04-07T23:45:05.837Z,4.76
2023-04-07T23:47:33.077Z,4.73
2023-04-07T23:50:00.541Z,4.72
2023-04-07T23:52:28.193Z,4.69
2023-04-07T23:54:55.746Z,4.68
2023-04-07T23:57:23.286Z,4.65
2023-04-07T23:59:50.855Z,4.63
